createdAt,value
2023-11-24T00:00:55.421Z,119.51
2023-11-24T00:01:55.485Z,117.42
2023-11-24T00:02:55.444Z,117.72
2023-11-24T00:03:55.533Z,112.91
2023-11-24T00:04:56.483Z,108.53
2023-11-24T00:05:55.532Z,108.63
2023-11-24T00:06:55.584Z,114.05
2023-11-24T00:07:55.498Z,121.57
2023-11-24T00:08:55.481Z,124.47
2023-11-24T00:09:55.486Z,126.79
2023-11-24T00:10:55.460Z,127.24
2023-11-24T00:12:05.538Z,128.44
2023-11-24T00:12:55.513Z,128.78
2023-11-24T00:13:55.450Z,129.15
2023-11-24T00:14:55.432Z,124.70
2023-11-24T00:15:55.552Z,132.95
2023-11-24T00:16:55.505Z,138.88
2023-11-24T00:17:58.080Z,134.38
2023-11-24T00:18:55.446Z,134.38
2023-11-24T00:19:55.385Z,134.75
2023-11-24T00:20:55.377Z,132.11
2023-11-24T00:21:55.419Z,133.88
2023-11-24T00:22:55.444Z,130.77
2023-11-24T00:23:55.377Z,126.12
2023-11-24T00:24:55.418Z,124.81
2023-11-24T00:25:55.325Z,126.05
2023-11-24T00:26:55.373Z,128.04
2023-11-24T00:27:55.346Z,130.66
2023-11-24T00:28:55.316Z,129.07
2023-11-24T00:29:55.297Z,127.25
2023-11-24T00:30:55.335Z,122.69
2023-11-24T00:31:55.294Z,123.42
2023-11-24T00:32:55.324Z,127.56
2023-11-24T00:33:55.378Z,129.79
2023-11-24T00:34:55.262Z,136.98
2023-11-24T00:35:55.247Z,141.00
2023-11-24T00:36:55.255Z,147.22
2023-11-24T00:37:55.243Z,154.08
2023-11-24T00:38:55.208Z,152.60
2023-11-24T00:39:55.216Z,149.75
2023-11-24T00:40:55.198Z,146.39
2023-11-24T00:41:55.212Z,141.41
2023-11-24T00:42:55.234Z,137.05
2023-11-24T00:43:55.184Z,134.65
2023-11-24T00:44:55.177Z,128.72
2023-11-24T00:45:55.298Z,123.00
2023-11-24T00:46:55.218Z,124.07
2023-11-24T00:47:55.148Z,123.71
2023-11-24T00:48:55.213Z,124.52
2023-11-24T00:49:55.114Z,126.17
2023-11-24T00:50:55.126Z,127.26
2023-11-24T00:51:55.219Z,128.66
2023-11-24T00:52:58.913Z,125.81
2023-11-24T00:53:55.091Z,126.06
2023-11-24T00:54:55.147Z,126.56
2023-11-24T00:55:55.065Z,126.69
2023-11-24T00:56:55.069Z,125.30
2023-11-24T00:57:55.071Z,119.26
2023-11-24T00:58:55.074Z,116.25
2023-11-24T00:59:55.049Z,117.46
2023-11-24T01:00:55.059Z,113.98
2023-11-24T01:01:55.049Z,111.72
2023-11-24T01:02:55.142Z,106.75
2023-11-24T01:03:55.105Z,109.81
2023-11-24T01:04:55.086Z,108.17
2023-11-24T01:05:55.024Z,105.68
2023-11-24T01:06:54.998Z,105.23
2023-11-24T01:07:54.968Z,105.99
2023-11-24T01:08:54.977Z,113.59
2023-11-24T01:09:55.070Z,116.37
2023-11-24T01:10:54.951Z,115.91
2023-11-24T01:11:54.925Z,117.22
2023-11-24T01:12:54.985Z,118.40
2023-11-24T01:13:54.908Z,119.90
2023-11-24T01:14:54.919Z,125.35
2023-11-24T01:15:54.914Z,126.74
2023-11-24T01:16:54.915Z,129.77
2023-11-24T01:17:54.882Z,138.25
2023-11-24T01:18:54.892Z,143.27
2023-11-24T01:19:54.844Z,149.45
2023-11-24T01:20:54.863Z,153.96
2023-11-24T01:21:54.883Z,165.24
2023-11-24T01:22:54.831Z,169.88
2023-11-24T01:23:54.835Z,182.14
2023-11-24T01:24:54.892Z,199.44
2023-11-24T01:25:54.815Z,200.35
2023-11-24T01:26:54.794Z,200.00
2023-11-24T01:27:54.857Z,193.30
2023-11-24T01:28:54.820Z,187.06
2023-11-24T01:29:54.778Z,177.62
2023-11-24T01:30:57.876Z,174.96
2023-11-24T01:31:54.759Z,174.97
2023-11-24T01:32:54.764Z,172.56
2023-11-24T01:33:54.818Z,172.95
2023-11-24T01:34:54.752Z,170.72
2023-11-24T01:35:54.725Z,168.89
2023-11-24T01:36:54.821Z,163.94
2023-11-24T01:37:54.731Z,161.46
2023-11-24T01:38:54.713Z,161.49
2023-11-24T01:39:54.740Z,162.23
2023-11-24T01:40:54.696Z,160.67
2023-11-24T01:41:54.683Z,164.49
2023-11-24T01:42:54.693Z,164.74
2023-11-24T01:43:54.681Z,167.28
2023-11-24T01:44:54.648Z,168.73
2023-11-24T01:45:54.705Z,167.44
2023-11-24T01:46:54.644Z,164.38
2023-11-24T01:47:54.620Z,163.82
2023-11-24T01:48:54.616Z,166.45
2023-11-24T01:49:54.618Z,165.75
2023-11-24T01:50:54.622Z,168.41
2023-11-24T01:51:54.618Z,171.82
2023-11-24T01:52:54.673Z,177.06
2023-11-24T01:53:54.564Z,181.12
2023-11-24T01:54:54.578Z,182.12
2023-11-24T01:55:54.574Z,184.41
2023-11-24T01:56:54.546Z,186.64
2023-11-24T01:57:54.553Z,189.64
2023-11-24T01:58:54.548Z,186.84
2023-11-24T01:59:54.510Z,187.89
2023-11-24T02:00:54.507Z,190.49
2023-11-24T02:01:54.530Z,196.08
2023-11-24T02:02:54.546Z,200.00
2023-11-24T02:03:54.561Z,199.97
2023-11-24T02:04:54.506Z,198.48
2023-11-24T02:05:54.449Z,200.14
2023-11-24T02:06:54.506Z,200.00
2023-11-24T02:07:54.461Z,198.57
2023-11-24T02:08:54.447Z,199.92
2023-11-24T02:10:04.648Z,199.67
2023-11-24T02:10:54.420Z,200.11
2023-11-24T02:11:54.392Z,200.32
2023-11-24T02:12:54.489Z,199.33
2023-11-24T02:13:54.387Z,198.11
2023-11-24T02:14:54.382Z,199.30
2023-11-24T02:15:57.362Z,200.00
2023-11-24T02:16:54.398Z,200.09
2023-11-24T02:17:54.404Z,198.61
2023-11-24T02:18:54.380Z,192.70
2023-11-24T02:19:54.381Z,189.49
2023-11-24T02:20:54.342Z,185.66
2023-11-24T02:21:54.331Z,181.62
2023-11-24T02:22:54.337Z,179.01
2023-11-24T02:23:54.318Z,184.55
2023-11-24T02:24:54.326Z,186.45
2023-11-24T02:25:54.285Z,185.23
2023-11-24T02:26:54.291Z,183.60
2023-11-24T02:27:54.292Z,180.71
2023-11-24T02:28:54.270Z,179.58
2023-11-24T02:29:54.272Z,177.95
2023-11-24T02:30:54.387Z,175.97
2023-11-24T02:31:54.219Z,176.68
2023-11-24T02:32:54.276Z,177.33
2023-11-24T02:33:54.265Z,176.66
2023-11-24T02:34:54.244Z,176.93
2023-11-24T02:35:54.201Z,176.77
2023-11-24T02:36:54.220Z,177.50
2023-11-24T02:37:54.169Z,174.36
2023-11-24T02:38:54.181Z,175.05
2023-11-24T02:39:54.181Z,171.69
2023-11-24T02:40:54.152Z,172.90
2023-11-24T02:41:54.157Z,173.36
2023-11-24T02:42:54.140Z,174.34
2023-11-24T02:43:54.220Z,175.49
2023-11-24T02:44:54.142Z,178.45
2023-11-24T02:45:54.140Z,179.01
2023-11-24T02:46:54.102Z,179.64
2023-11-24T02:47:54.128Z,183.31
2023-11-24T02:48:54.309Z,180.84
2023-11-24T02:49:54.068Z,185.15
2023-11-24T02:51:15.117Z,185.26
2023-11-24T02:51:54.057Z,185.73
2023-11-24T02:52:54.049Z,187.07
2023-11-24T02:53:54.041Z,188.13
2023-11-24T02:54:54.147Z,187.96
2023-11-24T02:55:54.022Z,187.44
2023-11-24T02:56:54.017Z,181.77
2023-11-24T02:57:54.010Z,181.31
2023-11-24T02:58:54.022Z,175.55
2023-11-24T02:59:53.999Z,175.45
2023-11-24T03:00:54.017Z,176.76
2023-11-24T03:01:54.053Z,177.62
2023-11-24T03:02:53.964Z,177.49
2023-11-24T03:03:54.025Z,178.95
2023-11-24T03:04:53.972Z,176.63
2023-11-24T03:05:53.941Z,177.25
2023-11-24T03:06:53.981Z,173.59
2023-11-24T03:07:53.929Z,172.47
2023-11-24T03:08:53.925Z,172.66
2023-11-24T03:09:53.911Z,171.67
2023-11-24T03:10:53.892Z,172.19
2023-11-24T03:11:58.942Z,166.55
2023-11-24T03:12:53.933Z,166.73
2023-11-24T03:13:53.860Z,167.16
2023-11-24T03:14:53.879Z,168.11
2023-11-24T03:15:53.892Z,166.93
2023-11-24T03:16:53.886Z,163.86
2023-11-24T03:17:53.870Z,162.28
2023-11-24T03:18:53.862Z,158.79
2023-11-24T03:19:53.809Z,157.42
2023-11-24T03:20:53.802Z,157.91
2023-11-24T03:21:53.840Z,158.82
2023-11-24T03:22:53.792Z,159.75
2023-11-24T03:23:53.767Z,160.08
2023-11-24T03:24:53.785Z,162.80
2023-11-24T03:25:53.784Z,161.04
2023-11-24T03:26:53.846Z,160.53
2023-11-24T03:27:53.921Z,161.83
2023-11-24T03:28:53.937Z,159.93
2023-11-24T03:29:54.042Z,160.09
2023-11-24T03:30:54.102Z,162.64
2023-11-24T03:31:54.085Z,166.98
2023-11-24T03:32:54.145Z,169.27
2023-11-24T03:33:54.222Z,172.84
2023-11-24T03:34:54.245Z,171.82
2023-11-24T03:35:54.283Z,171.20
2023-11-24T03:36:54.347Z,166.40
2023-11-24T03:37:54.393Z,161.73
2023-11-24T03:38:54.443Z,157.23
2023-11-24T03:39:54.563Z,155.05
2023-11-24T03:40:54.531Z,156.36
2023-11-24T03:41:54.575Z,152.58
2023-11-24T03:42:54.735Z,153.45
2023-11-24T03:43:54.701Z,154.21
2023-11-24T03:44:54.756Z,155.83
2023-11-24T03:45:54.812Z,156.02
2023-11-24T03:46:54.857Z,161.55
2023-11-24T03:47:54.901Z,164.71
2023-11-24T03:48:54.990Z,171.10
2023-11-24T03:49:54.980Z,171.54
2023-11-24T03:50:55.058Z,168.97
2023-11-24T03:51:55.142Z,167.68
2023-11-24T03:52:55.210Z,169.48
2023-11-24T03:53:55.198Z,169.95
2023-11-24T03:54:55.289Z,172.69
2023-11-24T03:55:55.282Z,170.27
2023-11-24T03:56:55.341Z,167.94
2023-11-24T03:57:55.428Z,166.28
2023-11-24T03:58:55.459Z,165.53
2023-11-24T03:59:55.480Z,164.11
2023-11-24T04:00:55.642Z,163.19
2023-11-24T04:01:55.677Z,160.91
2023-11-24T04:02:55.641Z,159.23
2023-11-24T04:03:55.834Z,161.59
2023-11-24T04:04:55.756Z,160.92
2023-11-24T04:05:55.794Z,157.98
2023-11-24T04:06:55.868Z,156.62
2023-11-24T04:07:55.885Z,162.00
2023-11-24T04:09:01.012Z,167.08
2023-11-24T04:09:55.974Z,167.38
2023-11-24T04:10:58.965Z,167.94
2023-11-24T04:11:55.941Z,168.50
2023-11-24T04:12:55.926Z,168.09
2023-11-24T04:13:55.898Z,170.06
2023-11-24T04:14:55.893Z,175.31
2023-11-24T04:15:55.956Z,176.77
2023-11-24T04:16:56.992Z,179.98
2023-11-24T04:17:55.984Z,180.07
2023-11-24T04:18:55.891Z,180.14
2023-11-24T04:19:55.873Z,181.52
2023-11-24T04:20:55.835Z,184.35
2023-11-24T04:21:55.864Z,184.23
2023-11-24T04:22:55.824Z,183.81
2023-11-24T04:23:55.827Z,181.13
2023-11-24T04:24:55.841Z,177.16
2023-11-24T04:25:55.810Z,178.48
2023-11-24T04:26:55.789Z,177.58
2023-11-24T04:27:55.808Z,178.01
2023-11-24T04:28:55.745Z,179.25
2023-11-24T04:29:55.756Z,174.93
2023-11-24T04:30:55.794Z,174.92
2023-11-24T04:31:55.739Z,173.58
2023-11-24T04:32:55.785Z,171.60
2023-11-24T04:33:55.800Z,169.97
2023-11-24T04:34:55.714Z,167.12
2023-11-24T04:35:55.708Z,164.42
2023-11-24T04:36:55.754Z,164.25
2023-11-24T04:37:55.702Z,166.69
2023-11-24T04:38:55.694Z,167.20
2023-11-24T04:39:55.724Z,165.55
2023-11-24T04:40:55.675Z,165.77
2023-11-24T04:41:55.708Z,169.71
2023-11-24T04:42:55.663Z,174.50
2023-11-24T04:43:55.635Z,174.43
2023-11-24T04:44:55.618Z,173.91
2023-11-24T04:45:55.708Z,170.10
2023-11-24T04:46:55.616Z,167.96
2023-11-24T04:47:55.661Z,168.67
2023-11-24T04:48:55.586Z,167.61
2023-11-24T04:49:55.611Z,168.98
2023-11-24T04:50:55.574Z,165.46
2023-11-24T04:51:55.581Z,162.03
2023-11-24T04:52:55.547Z,160.82
2023-11-24T04:53:55.580Z,159.63
2023-11-24T04:54:55.576Z,160.44
2023-11-24T04:55:55.539Z,161.89
2023-11-24T04:56:55.526Z,160.79
2023-11-24T04:57:55.544Z,162.25
2023-11-24T04:58:55.492Z,164.33
2023-11-24T04:59:55.491Z,165.96
2023-11-24T05:00:55.532Z,167.89
2023-11-24T05:01:55.592Z,169.22
2023-11-24T05:02:55.470Z,168.75
2023-11-24T05:03:55.550Z,169.05
2023-11-24T05:04:55.446Z,167.83
2023-11-24T05:05:55.445Z,165.74
2023-11-24T05:06:55.456Z,165.84
2023-11-24T05:07:55.423Z,165.98
2023-11-24T05:08:55.400Z,163.35
2023-11-24T05:09:55.417Z,159.99
2023-11-24T05:10:55.388Z,165.42
2023-11-24T05:11:55.395Z,168.40
2023-11-24T05:12:55.373Z,170.13
2023-11-24T05:13:55.396Z,167.58
2023-11-24T05:14:57.641Z,171.70
2023-11-24T05:15:55.424Z,180.40
2023-11-24T05:16:55.372Z,189.00
2023-11-24T05:17:55.470Z,193.60
2023-11-24T05:18:55.358Z,195.55
2023-11-24T05:19:55.333Z,196.50
2023-11-24T05:20:55.285Z,197.26
2023-11-24T05:21:55.355Z,195.13
2023-11-24T05:22:55.286Z,191.26
2023-11-24T05:23:55.371Z,188.70
2023-11-24T05:24:55.306Z,182.64
2023-11-24T05:25:55.265Z,179.19
2023-11-24T05:27:00.289Z,177.76
2023-11-24T05:27:55.287Z,178.08
2023-11-24T05:28:55.244Z,178.74
2023-11-24T05:29:55.232Z,179.15
2023-11-24T05:30:55.251Z,180.30
2023-11-24T05:31:55.252Z,176.18
2023-11-24T05:32:55.279Z,176.84
2023-11-24T05:33:55.277Z,172.13
2023-11-24T05:34:55.202Z,169.12
2023-11-24T05:35:55.173Z,163.29
2023-11-24T05:36:55.207Z,160.77
2023-11-24T05:37:55.168Z,158.53
2023-11-24T05:38:55.135Z,158.12
2023-11-24T05:39:55.219Z,157.67
2023-11-24T05:40:55.119Z,155.49
2023-11-24T05:41:55.120Z,149.15
2023-11-24T05:42:56.734Z,147.57
2023-11-24T05:43:55.115Z,147.56
2023-11-24T05:44:55.085Z,148.81
2023-11-24T05:45:55.184Z,149.58
2023-11-24T05:46:55.154Z,153.69
2023-11-24T05:47:55.084Z,151.62
2023-11-24T05:48:55.136Z,154.16
2023-11-24T05:49:55.051Z,151.04
2023-11-24T05:50:55.056Z,150.63
2023-11-24T05:51:55.161Z,153.13
2023-11-24T05:52:55.169Z,159.16
2023-11-24T05:53:55.212Z,161.52
2023-11-24T05:54:55.397Z,163.50
2023-11-24T05:55:55.300Z,162.22
2023-11-24T05:56:55.371Z,159.83
2023-11-24T05:57:55.438Z,156.04
2023-11-24T05:58:55.459Z,152.77
2023-11-24T05:59:55.521Z,153.59
2023-11-24T06:00:55.641Z,155.49
2023-11-24T06:01:55.668Z,156.73
2023-11-24T06:02:55.664Z,156.92
2023-11-24T06:03:55.806Z,155.77
2023-11-24T06:04:55.996Z,156.53
2023-11-24T06:05:55.805Z,158.77
2023-11-24T06:06:55.868Z,162.11
2023-11-24T06:07:57.474Z,163.03
2023-11-24T06:08:55.904Z,159.33
2023-11-24T06:09:55.932Z,159.83
2023-11-24T06:10:55.919Z,156.85
2023-11-24T06:11:55.889Z,157.85
2023-11-24T06:12:55.883Z,159.94
2023-11-24T06:13:55.878Z,164.49
2023-11-24T06:14:56.009Z,167.55
2023-11-24T06:15:56.048Z,167.05
2023-11-24T06:16:56.078Z,167.11
2023-11-24T06:17:56.116Z,165.69
2023-11-24T06:18:57.727Z,167.91
2023-11-24T06:19:56.329Z,166.36
2023-11-24T06:20:56.396Z,164.22
2023-11-24T06:21:56.317Z,161.66
2023-11-24T06:22:56.309Z,157.18
2023-11-24T06:23:56.328Z,154.93
2023-11-24T06:24:56.323Z,152.88
2023-11-24T06:25:56.268Z,151.97
2023-11-24T06:26:56.260Z,152.90
2023-11-24T06:27:56.445Z,150.04
2023-11-24T06:28:56.391Z,150.03
2023-11-24T06:29:56.473Z,148.63
2023-11-24T06:30:56.510Z,150.13
2023-11-24T06:31:56.521Z,155.18
2023-11-24T06:32:56.592Z,158.42
2023-11-24T06:33:56.708Z,168.15
2023-11-24T06:34:56.676Z,177.15
2023-11-24T06:35:56.790Z,187.67
2023-11-24T06:36:56.862Z,193.41
2023-11-24T06:37:56.917Z,198.29
2023-11-24T06:38:56.920Z,198.04
2023-11-24T06:39:57.054Z,201.60
2023-11-24T06:40:56.963Z,200.03
2023-11-24T06:41:57.015Z,200.00
2023-11-24T06:42:57.132Z,199.73
2023-11-24T06:43:57.200Z,199.61
2023-11-24T06:44:57.178Z,197.40
2023-11-24T06:45:57.305Z,196.27
2023-11-24T06:46:57.281Z,200.71
2023-11-24T06:47:57.348Z,199.29
2023-11-24T06:48:57.423Z,195.12
2023-11-24T06:49:57.446Z,191.11
2023-11-24T06:50:57.467Z,188.04
2023-11-24T06:51:57.535Z,186.89
2023-11-24T06:52:57.580Z,185.22
2023-11-24T06:53:57.604Z,185.94
2023-11-24T06:54:57.732Z,191.99
2023-11-24T06:55:57.720Z,195.16
2023-11-24T06:56:57.763Z,194.10
2023-11-24T06:57:57.852Z,193.86
2023-11-24T06:58:57.887Z,195.36
2023-11-24T06:59:57.926Z,198.58
2023-11-24T07:00:58.055Z,195.90
2023-11-24T07:01:58.042Z,196.90
2023-11-24T07:02:58.225Z,199.71
2023-11-24T07:03:58.215Z,199.37
2023-11-24T07:05:29.211Z,199.84
2023-11-24T07:05:58.198Z,200.25
2023-11-24T07:06:58.234Z,202.02
2023-11-24T07:07:58.147Z,205.83
2023-11-24T07:08:58.167Z,212.78
2023-11-24T07:09:58.186Z,218.52
2023-11-24T07:10:58.135Z,216.62
2023-11-24T07:11:58.144Z,203.38
2023-11-24T07:12:58.111Z,199.57
2023-11-24T07:13:58.158Z,198.90
2023-11-24T07:14:58.114Z,197.07
2023-11-24T07:16:25.220Z,195.45
2023-11-24T07:17:25.100Z,195.84
2023-11-24T07:18:26.643Z,196.07
2023-11-24T07:18:58.309Z,196.24
2023-11-24T07:20:32.578Z,198.68
2023-11-24T07:20:58.037Z,195.96
2023-11-24T07:21:58.107Z,198.93
2023-11-24T07:22:58.780Z,202.65
2023-11-24T07:23:58.022Z,204.57
2023-11-24T07:24:58.042Z,205.53
2023-11-24T07:25:58.034Z,202.54
2023-11-24T07:26:59.038Z,199.80
2023-11-24T07:28:25.034Z,197.88
2023-11-24T07:28:58.760Z,198.27
2023-11-24T07:29:58.995Z,199.63
2023-11-24T07:30:57.987Z,200.76
2023-11-24T07:31:57.925Z,201.05
2023-11-24T07:32:58.052Z,203.24
2023-11-24T07:33:57.961Z,198.70
2023-11-24T07:34:57.998Z,198.17
2023-11-24T07:35:58.559Z,198.34
2023-11-24T07:36:57.954Z,196.40
2023-11-24T07:37:58.125Z,197.41
2023-11-24T07:38:58.374Z,198.70
2023-11-24T07:39:57.874Z,197.28
2023-11-24T07:40:57.918Z,194.80
2023-11-24T07:41:57.973Z,193.30
2023-11-24T07:42:57.973Z,188.13
2023-11-24T07:43:57.859Z,189.49
2023-11-24T07:44:57.830Z,190.06
2023-11-24T07:45:57.907Z,195.30
2023-11-24T07:46:57.834Z,197.83
2023-11-24T07:47:59.785Z,196.76
2023-11-24T07:48:57.829Z,196.94
2023-11-24T07:49:57.920Z,194.40
2023-11-24T07:50:57.787Z,190.02
2023-11-24T07:51:57.795Z,189.92
2023-11-24T07:52:59.099Z,190.19
2023-11-24T07:53:57.744Z,186.00
2023-11-24T07:54:57.795Z,184.58
2023-11-24T07:55:57.782Z,187.01
2023-11-24T07:56:58.801Z,186.53
2023-11-24T07:57:57.998Z,185.78
2023-11-24T07:58:57.694Z,185.83
2023-11-24T07:59:57.703Z,187.92
2023-11-24T08:00:57.738Z,186.07
2023-11-24T08:01:57.702Z,188.96
2023-11-24T08:02:57.701Z,187.70
2023-11-24T08:03:57.681Z,187.18
2023-11-24T08:04:57.624Z,188.69
2023-11-24T08:05:57.630Z,189.94
2023-11-24T08:06:57.687Z,190.87
2023-11-24T08:07:57.749Z,190.28
2023-11-24T08:08:57.745Z,187.91
2023-11-24T08:09:57.799Z,188.34
2023-11-24T08:10:57.906Z,188.33
2023-11-24T08:11:57.942Z,189.81
2023-11-24T08:12:57.967Z,187.73
2023-11-24T08:13:58.104Z,182.43
2023-11-24T08:14:58.069Z,185.24
2023-11-24T08:15:58.150Z,191.50
2023-11-24T08:16:58.199Z,193.45
2023-11-24T08:17:58.337Z,190.45
2023-11-24T08:18:58.346Z,187.84
2023-11-24T08:19:58.279Z,184.63
2023-11-24T08:20:58.368Z,180.71
2023-11-24T08:21:58.442Z,175.16
2023-11-24T08:22:58.492Z,173.61
2023-11-24T08:23:58.482Z,171.06
2023-11-24T08:24:58.560Z,169.80
2023-11-24T08:25:58.597Z,167.71
2023-11-24T08:26:58.650Z,167.74
2023-11-24T08:27:58.732Z,165.66
2023-11-24T08:28:58.720Z,164.47
2023-11-24T08:29:58.845Z,164.28
2023-11-24T08:30:58.932Z,164.23
2023-11-24T08:31:58.996Z,166.16
2023-11-24T08:32:59.009Z,165.48
2023-11-24T08:33:59.022Z,166.03
2023-11-24T08:34:59.115Z,167.53
2023-11-24T08:35:59.122Z,165.36
2023-11-24T08:36:59.244Z,165.65
2023-11-24T08:37:59.218Z,171.08
2023-11-24T08:38:59.232Z,177.35
2023-11-24T08:39:59.302Z,178.85
2023-11-24T08:40:59.355Z,179.92
2023-11-24T08:41:59.440Z,183.47
2023-11-24T08:42:59.503Z,187.30
2023-11-24T08:43:59.478Z,188.87
2023-11-24T08:44:59.553Z,191.95
2023-11-24T08:45:59.690Z,194.71
2023-11-24T08:46:59.751Z,195.40
2023-11-24T08:47:59.746Z,195.99
2023-11-24T08:48:59.783Z,197.15
2023-11-24T08:50:00.768Z,199.82
2023-11-24T08:50:59.790Z,198.99
2023-11-24T08:51:59.777Z,200.26
2023-11-24T08:52:59.794Z,199.75
2023-11-24T08:53:59.801Z,199.43
2023-11-24T08:54:59.918Z,199.50
2023-11-24T08:55:59.926Z,198.87
2023-11-24T08:56:59.994Z,196.25
2023-11-24T08:58:00.077Z,197.00
2023-11-24T08:59:00.097Z,199.65
2023-11-24T09:00:00.129Z,200.07
2023-11-24T09:01:00.254Z,198.78
2023-11-24T09:02:00.344Z,195.12
2023-11-24T09:03:00.348Z,191.47
2023-11-24T09:04:00.499Z,188.04
2023-11-24T09:05:00.489Z,184.98
2023-11-24T09:06:00.419Z,180.13
2023-11-24T09:07:00.486Z,176.80
2023-11-24T09:08:00.511Z,174.91
2023-11-24T09:09:00.570Z,170.87
2023-11-24T09:10:00.742Z,169.58
2023-11-24T09:11:00.681Z,172.18
2023-11-24T09:12:00.719Z,174.18
2023-11-24T09:13:00.848Z,175.73
2023-11-24T09:14:00.810Z,177.05
2023-11-24T09:15:00.874Z,174.81
2023-11-24T09:16:00.965Z,174.07
2023-11-24T09:17:00.988Z,173.88
2023-11-24T09:18:01.087Z,175.43
2023-11-24T09:19:01.432Z,176.63
2023-11-24T09:20:01.133Z,174.52
2023-11-24T09:21:01.166Z,170.46
2023-11-24T09:22:01.293Z,168.67
2023-11-24T09:23:01.268Z,170.60
2023-11-24T09:24:01.572Z,170.60
2023-11-24T09:25:01.409Z,172.45
2023-11-24T09:26:01.438Z,174.73
2023-11-24T09:27:01.623Z,177.18
2023-11-24T09:28:01.708Z,179.17
2023-11-24T09:29:01.593Z,180.29
2023-11-24T09:33:50.404Z,179.05
2023-11-24T09:34:21.726Z,180.96
2023-11-24T09:35:21.862Z,187.78
2023-11-24T09:36:21.068Z,193.83
2023-11-24T09:37:27.498Z,197.82
2023-11-24T09:38:20.975Z,179.99
2023-11-24T09:39:20.907Z,181.61
2023-11-24T09:40:20.917Z,183.22
2023-11-24T09:41:20.912Z,183.47
2023-11-24T09:42:22.510Z,180.43
2023-11-24T09:43:20.925Z,178.51
2023-11-24T09:44:20.869Z,174.13
2023-11-24T09:45:20.964Z,172.28
2023-11-24T09:46:20.980Z,172.17
2023-11-24T09:47:20.866Z,178.44
2023-11-24T09:48:22.033Z,175.77
2023-11-24T09:49:20.834Z,175.88
2023-11-24T09:50:20.816Z,175.98
2023-11-24T09:51:20.839Z,171.84
2023-11-24T09:52:20.809Z,167.79
2023-11-24T09:53:20.797Z,165.00
2023-11-24T09:54:20.914Z,162.65
2023-11-24T09:55:20.786Z,163.55
2023-11-24T09:56:20.755Z,163.50
2023-11-24T09:57:20.764Z,161.52
2023-11-24T09:58:20.782Z,159.86
2023-11-24T09:59:20.843Z,159.11
2023-11-24T10:00:20.854Z,156.91
2023-11-24T10:01:20.916Z,156.61
2023-11-24T10:02:21.188Z,157.46
2023-11-24T10:03:21.022Z,154.20
2023-11-24T10:04:21.164Z,153.94
2023-11-24T10:05:21.118Z,151.75
2023-11-24T10:06:21.146Z,152.27
2023-11-24T10:07:21.211Z,153.91
2023-11-24T10:08:21.324Z,157.27
2023-11-24T10:09:21.338Z,165.82
2023-11-24T10:10:21.345Z,169.19
2023-11-24T10:11:21.418Z,168.32
2023-11-24T10:12:21.452Z,169.34
2023-11-24T10:13:21.506Z,168.20
2023-11-24T10:14:21.564Z,168.61
2023-11-24T10:15:21.709Z,169.54
2023-11-24T10:16:21.691Z,169.83
2023-11-24T10:17:21.761Z,167.51
2023-11-24T10:18:21.774Z,169.64
2023-11-24T10:19:23.219Z,170.77
2023-11-24T10:20:21.803Z,170.19
2023-11-24T10:21:29.921Z,169.69
2023-11-24T10:22:22.791Z,169.02
2023-11-24T10:23:21.784Z,165.22
2023-11-24T10:24:21.750Z,164.49
2023-11-24T10:25:21.824Z,165.84
2023-11-24T10:26:21.757Z,164.74
2023-11-24T10:27:21.750Z,165.59
2023-11-24T10:28:21.792Z,169.18
2023-11-24T10:29:21.718Z,171.32
2023-11-24T10:30:21.711Z,170.97
2023-11-24T10:31:22.048Z,172.89
2023-11-24T10:32:21.722Z,172.72
2023-11-24T10:33:34.944Z,171.56
2023-11-24T10:34:22.738Z,171.63
2023-11-24T10:35:21.713Z,168.94
2023-11-24T10:36:21.648Z,168.28
2023-11-24T10:37:21.683Z,169.72
2023-11-24T10:38:21.639Z,166.88
2023-11-24T10:39:21.647Z,165.98
2023-11-24T10:40:21.972Z,163.89
2023-11-24T10:41:21.643Z,161.40
2023-11-24T10:42:21.650Z,159.37
2023-11-24T10:43:21.633Z,159.61
2023-11-24T10:44:21.582Z,156.92
2023-11-24T10:45:21.598Z,156.15
2023-11-24T10:46:22.011Z,155.47
2023-11-24T10:47:21.642Z,153.46
2023-11-24T10:48:21.584Z,154.45
2023-11-24T10:49:21.756Z,154.69
2023-11-24T10:50:21.530Z,157.87
2023-11-24T10:52:21.750Z,157.92
2023-11-24T10:53:21.538Z,158.15
2023-11-24T10:54:21.548Z,158.56
2023-11-24T10:55:51.341Z,156.87
2023-11-24T10:57:51.914Z,157.76
2023-11-24T10:59:01.946Z,159.32
2023-11-24T10:59:25.777Z,158.44
2023-11-24T11:00:25.792Z,162.76
2023-11-24T11:01:25.880Z,167.56
2023-11-24T11:02:25.774Z,171.91
2023-11-24T11:03:25.733Z,174.29
2023-11-24T11:04:25.772Z,169.16
2023-11-24T11:05:25.710Z,164.59
2023-11-24T11:06:25.703Z,164.62
2023-11-24T11:07:25.679Z,166.89
2023-11-24T11:08:25.663Z,163.07
2023-11-24T11:09:25.689Z,160.34
2023-11-24T11:10:25.693Z,162.19
2023-11-24T11:11:25.640Z,154.62
2023-11-24T11:12:25.665Z,151.74
2023-11-24T11:13:25.616Z,147.61
2023-11-24T11:14:25.611Z,150.09
2023-11-24T11:15:25.613Z,151.19
2023-11-24T11:16:25.687Z,153.25
2023-11-24T11:17:25.587Z,151.22
2023-11-24T11:18:25.592Z,145.37
2023-11-24T11:19:25.599Z,148.40
2023-11-24T11:20:25.552Z,150.58
2023-11-24T11:21:25.572Z,141.35
2023-11-24T11:22:25.554Z,143.29
2023-11-24T11:23:25.542Z,142.56
2023-11-24T11:24:25.609Z,145.16
2023-11-24T11:25:25.616Z,149.73
2023-11-24T11:26:25.510Z,143.71
2023-11-24T11:27:25.542Z,143.74
2023-11-24T11:28:25.536Z,138.55
2023-11-24T11:29:25.468Z,137.60
2023-11-24T11:30:25.481Z,133.50
2023-11-24T11:31:26.304Z,132.60
2023-11-24T11:32:26.991Z,130.45
2023-11-24T11:33:25.495Z,129.43
2023-11-24T11:34:25.421Z,126.97
2023-11-24T11:35:25.463Z,116.12
2023-11-24T11:36:25.422Z,122.04
2023-11-24T11:37:25.473Z,131.91
2023-11-24T11:38:27.217Z,140.14
2023-11-24T11:39:25.392Z,135.79
2023-11-24T11:40:25.446Z,140.73
2023-11-24T11:41:25.441Z,143.81
2023-11-24T11:42:25.363Z,135.12
2023-11-24T11:43:25.399Z,129.98
2023-11-24T11:44:27.535Z,126.24
2023-11-24T11:45:25.424Z,130.47
2023-11-24T11:46:25.479Z,135.07
2023-11-24T11:47:25.639Z,135.86
2023-11-24T11:48:25.399Z,135.44
2023-11-24T11:49:25.411Z,144.54
2023-11-24T11:50:25.540Z,142.62
2023-11-24T11:51:25.640Z,139.00
2023-11-24T11:52:25.977Z,124.86
2023-11-24T11:53:25.601Z,123.00
2023-11-24T11:54:25.578Z,125.38
2023-11-24T11:55:25.744Z,121.90
2023-11-24T11:56:25.509Z,118.62
2023-11-24T11:57:25.508Z,115.41
2023-11-24T11:58:25.528Z,114.46
2023-11-24T11:59:25.583Z,110.42
2023-11-24T12:00:25.610Z,117.76
2023-11-24T12:01:25.761Z,114.92
2023-11-24T12:02:35.018Z,106.41
2023-11-24T12:24:24.778Z,106.41
2023-11-24T13:15:59.410Z,106.41
2023-11-24T13:16:29.209Z,109.59
2023-11-24T13:17:28.804Z,135.09
2023-11-24T13:24:24.893Z,106.41
2023-11-24T13:24:50.585Z,108.93
2023-11-24T13:25:50.983Z,126.42
2023-11-24T13:26:51.206Z,147.96
2023-11-24T13:27:50.250Z,170.84
2023-11-24T13:28:51.577Z,195.68
2023-11-24T13:29:49.930Z,205.68
2023-11-24T13:30:50.564Z,187.33
2023-11-24T13:31:50.272Z,175.11
2023-11-24T13:32:50.125Z,166.14
2023-11-24T13:33:50.301Z,160.27
2023-11-24T13:34:50.938Z,151.09
2023-11-24T13:35:50.003Z,144.68
2023-11-24T13:36:50.286Z,144.49
2023-11-24T13:37:50.481Z,142.80
2023-11-24T13:38:52.299Z,137.04
2023-11-24T13:41:27.014Z,138.73
2023-11-24T13:41:54.854Z,139.42
2023-11-24T13:42:54.843Z,141.79
2023-11-24T13:43:55.920Z,142.24
2023-11-24T13:57:19.475Z,138.73
2023-11-24T13:57:49.612Z,141.49
2023-11-24T13:58:48.514Z,154.67
2023-11-24T13:59:48.391Z,167.39
2023-11-24T14:00:48.493Z,179.75
2023-11-24T14:01:48.564Z,193.26
2023-11-24T14:02:48.751Z,193.85
2023-11-24T14:03:49.135Z,177.79